Thornhurst, Pennsylvania
Current Conditions -  °F | °C
As of 1:54 PM on Friday 31 Oct 2014 (Local Time) from KAVP Reporting Station
Clear Clear  
Wind Chill: 51°   Ceiling: Unl
Heat Index: 51°   Visibility: 10mi
Dew Point: 29°   Wind: 3mph
Humidity: 43%   Direction: 50°NE
Pressure: 29.9"   Gusts: NA
Location:  41.243°N, 75.5491°W
Report Text: KAVP 311754Z 05003KT 10SM CLR 11/M02 A2990 RMK AO2 SLP128 T01061017 10122 20006 58026
Loading
Personal Weather Stations






























Interactive Weather Map
Tropical Storm Tracking
New forecast layout! Learn more

10-Day Weather Forecast

Advertisements
Track Severe Weather on mobile